sensor_id;sensor_type;location;lat;lon;timestamp;pressure;altitude;pressure_sealevel;temperature;humidity
20424;BME280;10371;49.042;8.002;2023-02-01T00:00:34;100661.91;;;5.24;100.00
20424;BME280;10371;49.042;8.002;2023-02-01T00:01:35;100660.91;;;5.26;100.00
20424;BME280;10371;49.042;8.002;2023-02-01T00:02:35;100656.81;;;5.22;100.00
20424;BME280;10371;49.042;8.002;2023-02-01T00:03:39;100660.91;;;5.26;100.00
20424;BME280;10371;49.042;8.002;2023-02-01T00:04:39;100667.91;;;5.24;100.00
20424;BME280;10371;49.042;8.002;2023-02-01T00:05:40;100652.63;;;5.20;100.00
20424;BME280;10371;49.042;8.002;2023-02-01T00:06:40;100649.25;;;5.18;100.00
20424;BME280;10371;49.042;8.002;2023-02-01T00:07:40;100651.78;;;5.19;100.00
20424;BME280;10371;49.042;8.002;2023-02-01T00:08:41;100656.03;;;5.20;100.00
20424;BME280;10371;49.042;8.002;2023-02-01T00:09:41;100649.22;;;5.19;100.00
20424;BME280;10371;49.042;8.002;2023-02-01T00:10:41;100638.06;;;5.19;100.00
20424;BME280;10371;49.042;8.002;2023-02-01T00:11:41;100643.22;;;5.19;100.00
20424;BME280;10371;49.042;8.002;2023-02-01T00:12:42;100643.28;;;5.17;100.00
20424;BME280;10371;49.042;8.002;2023-02-01T00:13:42;100637.06;;;5.21;100.00
20424;BME280;10371;49.042;8.002;2023-02-01T00:14:42;100632.53;;;5.26;100.00
20424;BME280;10371;49.042;8.002;2023-02-01T00:15:42;100635.09;;;5.26;100.00
20424;BME280;10371;49.042;8.002;2023-02-01T00:16:43;100640.97;;;5.30;100.00
20424;BME280;10371;49.042;8.002;2023-02-01T00:17:43;100635.81;;;5.30;100.00
20424;BME280;10371;49.042;8.002;2023-02-01T00:18:45;100637.56;;;5.29;100.00
20424;BME280;10371;49.042;8.002;2023-02-01T00:19:46;100629.94;;;5.26;100.00
20424;BME280;10371;49.042;8.002;2023-02-01T00:20:46;100628.13;;;5.28;100.00
20424;BME280;10371;49.042;8.002;2023-02-01T00:21:46;100632.41;;;5.29;100.00
20424;BME280;10371;49.042;8.002;2023-02-01T00:22:47;100635.09;;;5.26;100.00
20424;BME280;10371;49.042;8.002;2023-02-01T00:23:47;100640.16;;;5.29;100.00
20424;BME280;10371;49.042;8.002;2023-02-01T00:24:47;100641.81;;;5.30;100.00
20424;BME280;10371;49.042;8.002;2023-02-01T00:25:48;100632.41;;;5.29;100.00
20424;BME280;10371;49.042;8.002;2023-02-01T00:26:48;100633.25;;;5.30;100.00
20424;BME280;10371;49.042;8.002;2023-02-01T00:27:49;100635.88;;;5.28;100.00
20424;BME280;10371;49.042;8.002;2023-02-01T00:28:50;100633.25;;;5.30;100.00
20424;BME280;10371;49.042;8.002;2023-02-01T00:29:50;100630.03;;;5.25;100.00
20424;BME280;10371;49.042;8.002;2023-02-01T00:31:01;100643.75;;;5.25;100.00
20424;BME280;10371;49.042;8.002;2023-02-01T00:32:02;100637.69;;;5.26;100.00
20424;BME280;10371;49.042;8.002;2023-02-01T00:33:02;100641.19;;;5.25;100.00
20424;BME280;10371;49.042;8.002;2023-02-01T00:34:03;100637.69;;;5.26;100.00
20424;BME280;10371;49.042;8.002;2023-02-01T00:35:04;100640.41;;;5.23;100.00
20424;BME280;10371;49.042;8.002;2023-02-01T00:36:06;100646.50;;;5.22;100.00
20424;BME280;10371;49.042;8.002;2023-02-01T00:37:07;100637.91;;;5.22;100.00
20424;BME280;10371;49.042;8.002;2023-02-01T00:38:07;100638.75;;;5.22;100.00
20424;BME280;10371;49.042;8.002;2023-02-01T00:39:09;100631.06;;;5.21;100.00
20424;BME280;10371;49.042;8.002;2023-02-01T00:40:09;100623.31;;;5.21;100.00
20424;BME280;10371;49.042;8.002;2023-02-01T00:41:14;100623.41;;;5.19;100.00
20424;BME280;10371;49.042;8.002;2023-02-01T00:42:14;100611.38;;;5.18;100.00
20424;BME280;10371;49.042;8.002;2023-02-01T00:43:14;100610.50;;;5.19;100.00
20424;BME280;10371;49.042;8.002;2023-02-01T00:44:15;100609.66;;;5.19;100.00
20424;BME280;10371;49.042;8.002;2023-02-01T00:45:15;100606.22;;;5.18;100.00
20424;BME280;10371;49.042;8.002;2023-02-01T00:46:17;100605.53;;;5.14;100.00
20424;BME280;10371;49.042;8.002;2023-02-01T00:47:18;100605.31;;;5.19;100.00
20424;BME280;10371;49.042;8.002;2023-02-01T00:48:19;100596.75;;;5.19;100.00
20424;BME280;10371;49.042;8.002;2023-02-01T00:49:20;100597.63;;;5.18;100.00
20424;BME280;10371;49.042;8.002;2023-02-01T00:50:20;100600.44;;;5.13;100.00
20424;BME280;10371;49.042;8.002;2023-02-01T00:51:22;100599.53;;;5.14;100.00
20424;BME280;10371;49.042;8.002;2023-02-01T00:52:23;100600.38;;;5.14;100.00
20424;BME280;10371;49.042;8.002;2023-02-01T00:53:24;100594.22;;;5.17;100.00
20424;BME280;10371;49.042;8.002;2023-02-01T00:54:24;100597.78;;;5.14;100.00
20424;BME280;10371;49.042;8.002;2023-02-01T00:55:24;100597.72;;;5.16;100.00
20424;BME280;10371;49.042;8.002;2023-02-01T00:56:24;100597.72;;;5.16;100.00
20424;BME280;10371;49.042;8.002;2023-02-01T00:57:27;100591.66;;;5.17;100.00
20424;BME280;10371;49.042;8.002;2023-02-01T00:58:28;100602.75;;;5.19;100.00
20424;BME280;10371;49.042;8.002;2023-02-01T00:59:28;100608.75;;;5.20;100.00
20424;BME280;10371;49.042;8.002;2023-02-01T01:00:28;100597.44;;;5.22;100.00
20424;BME280;10371;49.042;8.002;2023-02-01T01:01:28;100597.28;;;5.25;100.00
20424;BME280;10371;49.042;8.002;2023-02-01T01:02:29;100597.16;;;5.28;100.00
20424;BME280;10371;49.042;8.002;2023-02-01T01:03:30;100587.75;;;5.27;100.00
20424;BME280;10371;49.042;8.002;2023-02-01T01:04:33;100584.34;;;5.27;100.00
20424;BME280;10371;49.042;8.002;2023-02-01T01:05:33;100593.78;;;5.26;100.00
20424;BME280;10371;49.042;8.002;2023-02-01T01:06:34;100598.22;;;5.24;100.00
20424;BME280;10371;49.042;8.002;2023-02-01T01:07:35;100598.91;;;5.28;100.00
20424;BME280;10371;49.042;8.002;2023-02-01T01:08:36;100599.69;;;5.30;100.00
20424;BME280;10371;49.042;8.002;2023-02-01T01:09:36;100600.50;;;5.30;100.00
20424;BME280;10371;49.042;8.002;2023-02-01T01:10:37;100592.75;;;5.30;100.00
20424;BME280;10371;49.042;8.002;2023-02-01T01:11:38;100597.97;;;5.29;100.00
20424;BME280;10371;49.042;8.002;2023-02-01T01:12:38;100591.00;;;5.31;100.00
20424;BME280;10371;49.042;8.002;2023-02-01T01:13:38;100597.16;;;5.28;100.00
20424;BME280;10371;49.042;8.002;2023-02-01T01:14:39;100601.44;;;5.29;100.00
20424;BME280;10371;49.042;8.002;2023-02-01T01:15:40;100603.00;;;5.32;100.00
20424;BME280;10371;49.042;8.002;2023-02-01T01:16:41;100600.50;;;5.30;100.00
20424;BME280;10371;49.042;8.002;2023-02-01T01:17:41;100602.31;;;5.28;100.00
20424;BME280;10371;49.042;8.002;2023-02-01T01:18:42;100600.66;;;5.27;100.00
20424;BME280;10371;49.042;8.002;2023-02-01T01:19:42;100600.72;;;5.26;100.00
20424;BME280;10371;49.042;8.002;2023-02-01T01:20:42;100596.53;;;5.23;100.00
20424;BME280;10371;49.042;8.002;2023-02-01T01:21:42;100592.13;;;5.25;100.00
20424;BME280;10371;49.042;8.002;2023-02-01T01:22:43;100603.88;;;5.32;100.00
20424;BME280;10371;49.042;8.002;2023-02-01T01:23:44;100599.44;;;5.34;100.00
20424;BME280;10371;49.042;8.002;2023-02-01T01:24:44;100590.88;;;5.34;100.00
20424;BME280;10371;49.042;8.002;2023-02-01T01:25:45;100596.84;;;5.34;100.00
20424;BME280;10371;49.042;8.002;2023-02-01T01:26:45;100588.38;;;5.32;100.00
20424;BME280;10371;49.042;8.002;2023-02-01T01:27:45;100593.41;;;5.35;100.00
20424;BME280;10371;49.042;8.002;2023-02-01T01:28:46;100595.06;;;5.36;100.00
20424;BME280;10371;49.042;8.002;2023-02-01T01:29:47;100593.41;;;5.35;100.00
20424;BME280;10371;49.042;8.002;2023-02-01T01:30:47;100586.53;;;5.34;100.00
20424;BME280;10371;49.042;8.002;2023-02-01T01:31:47;100591.69;;;5.34;100.00
20424;BME280;10371;49.042;8.002;2023-02-01T01:32:48;100589.88;;;5.36;100.00
20424;BME280;10371;49.042;8.002;2023-02-01T01:33:50;100582.97;;;5.37;100.00
20424;BME280;10371;49.042;8.002;2023-02-01T01:34:51;100579.66;;;5.35;100.00
20424;BME280;10371;49.042;8.002;2023-02-01T01:35:52;100582.91;;;5.38;100.00
20424;BME280;10371;49.042;8.002;2023-02-01T01:36:52;100579.41;;;5.40;100.00
20424;BME280;10371;49.042;8.002;2023-02-01T01:37:52;100581.09;;;5.41;100.00
20424;BME280;10371;49.042;8.002;2023-02-01T01:38:52;100577.75;;;5.38;100.00
20424;BME280;10371;49.042;8.002;2023-02-01T01:39:53;100575.94;;;5.41;100.00
20424;BME280;10371;49.042;8.002;2023-02-01T01:40:55;100573.38;;;5.41;100.00
20424;BME280;10371;49.042;8.002;2023-02-01T01:41:55;100575.94;;;5.41;100.00
20424;BME280;10371;49.042;8.002;2023-02-01T01:42:56;100568.25;;;5.39;100.00
20424;BME280;10371;49.042;8.002;2023-02-01T01:43:58;100575.94;;;5.41;100.00
20424;BME280;10371;49.042;8.002;2023-02-01T01:45:03;100575.03;;;5.42;100.00
20424;BME280;10371;49.042;8.002;2023-02-01T01:46:03;100579.34;;;5.41;100.00
20424;BME280;10371;49.042;8.002;2023-02-01T01:47:04;100569.09;;;5.40;100.00
20424;BME280;10371;49.042;8.002;2023-02-01T01:49:22;100576.06;;;5.37;100.00
20424;BME280;10371;49.042;8.002;2023-02-01T01:50:33;100574.09;;;5.43;100.00
20424;BME280;10371;49.042;8.002;2023-02-01T01:51:43;100574.09;;;5.43;100.00
20424;BME280;10371;49.042;8.002;2023-02-01T01:52:46;100570.53;;;5.45;100.00
20424;BME280;10371;49.042;8.002;2023-02-01T01:53:55;100570.47;;;5.47;100.00
20424;BME280;10371;49.042;8.002;2023-02-01T01:54:57;100570.47;;;5.47;100.00
20424;BME280;10371;49.042;8.002;2023-02-01T01:55:59;100567.75;;;5.50;100.00
20424;BME280;10371;49.042;8.002;2023-02-01T01:57:03;100568.53;;;5.52;100.00
20424;BME280;10371;49.042;8.002;2023-02-01T01:58:11;100569.56;;;5.48;100.00
20424;BME280;10371;49.042;8.002;2023-02-01T01:59:12;100564.41;;;5.48;100.00
20424;BME280;10371;49.042;8.002;2023-02-01T02:00:16;100564.50;;;5.46;100.00
20424;BME280;10371;49.042;8.002;2023-02-01T02:01:17;100565.31;;;5.47;100.00
20424;BME280;10371;49.042;8.002;2023-02-01T02:02:17;100561.66;;;5.51;100.00
20424;BME280;10371;49.042;8.002;2023-02-01T02:03:21;100557.41;;;5.50;100.00
20424;BME280;10371;49.042;8.002;2023-02-01T02:04:23;100549.72;;;5.48;100.00
20424;BME280;10371;49.042;8.002;2023-02-01T02:05:23;100554.00;;;5.49;100.00
20424;BME280;10371;49.042;8.002;2023-02-01T02:06:33;100559.19;;;5.49;100.00
20424;BME280;10371;49.042;8.002;2023-02-01T02:07:37;100546.25;;;5.49;100.00
20424;BME280;10371;49.042;8.002;2023-02-01T02:08:39;100540.22;;;5.49;100.00
20424;BME280;10371;49.042;8.002;2023-02-01T02:09:39;100541.09;;;5.49;100.00
20424;BME280;10371;49.042;8.002;2023-02-01T02:10:40;100541.09;;;5.49;100.00
20424;BME280;10371;49.042;8.002;2023-02-01T02:11:59;100535.84;;;5.51;100.00
20424;BME280;10371;49.042;8.002;2023-02-01T02:12:59;100530.81;;;5.48;100.00
20424;BME280;10371;49.042;8.002;2023-02-01T02:14:00;100531.81;;;5.45;100.00
20424;BME280;10371;49.042;8.002;2023-02-01T02:15:01;100530.97;;;5.45;100.00
20424;BME280;10371;49.042;8.002;2023-02-01T02:16:09;100531.97;;;5.42;100.00
20424;BME280;10371;49.042;8.002;2023-02-01T02:17:43;100530.97;;;5.45;100.00
20424;BME280;10371;49.042;8.002;2023-02-01T02:20:19;100550.03;;;5.42;100.00
20424;BME280;10371;49.042;8.002;2023-02-01T02:32:36;100542.97;;;5.46;100.00
20424;BME280;10371;49.042;8.002;2023-02-01T02:34:03;100554.06;;;5.48;100.00
20424;BME280;10371;49.042;8.002;2023-02-01T02:36:59;100547.31;;;5.45;100.00
20424;BME280;10371;49.042;8.002;2023-02-01T02:38:17;100549.00;;;5.46;100.00
20424;BME280;10371;49.042;8.002;2023-02-01T02:40:39;100551.56;;;5.46;100.00
20424;BME280;10371;49.042;8.002;2023-02-01T02:41:54;100540.63;;;5.41;100.00
20424;BME280;10371;49.042;8.002;2023-02-01T02:43:36;100546.63;;;5.42;100.00
20424;BME280;10371;49.042;8.002;2023-02-01T02:45:02;100552.31;;;5.48;100.00
20424;BME280;10371;49.042;8.002;2023-02-01T02:46:26;100552.31;;;5.48;100.00
20424;BME280;10371;49.042;8.002;2023-02-01T02:48:07;100552.16;;;5.51;100.00
20424;BME280;10371;49.042;8.002;2023-02-01T02:49:19;100555.66;;;5.50;100.00
20424;BME280;10371;49.042;8.002;2023-02-01T02:52:01;100554.69;;;5.53;100.00
20424;BME280;10371;49.042;8.002;2023-02-01T02:53:38;100556.66;;;5.48;100.00
20424;BME280;10371;49.042;8.002;2023-02-01T02:55:00;100560.97;;;5.47;100.00
20424;BME280;10371;49.042;8.002;2023-02-01T02:56:04;100556.66;;;5.48;100.00
20424;BME280;10371;49.042;8.002;2023-02-01T02:57:36;100556.66;;;5.48;100.00
20424;BME280;10371;49.042;8.002;2023-02-01T02:58:56;100558.41;;;5.47;100.00
20424;BME280;10371;49.042;8.002;2023-02-01T03:00:22;100548.13;;;5.46;100.00
20424;BME280;10371;49.042;8.002;2023-02-01T03:01:43;100541.31;;;5.45;100.00
20424;BME280;10371;49.042;8.002;2023-02-01T03:03:02;100549.72;;;5.48;100.00
20424;BME280;10371;49.042;8.002;2023-02-01T03:04:21;100548.75;;;5.51;100.00
20424;BME280;10371;49.042;8.002;2023-02-01T03:05:23;100545.34;;;5.50;100.00
20424;BME280;10371;49.042;8.002;2023-02-01T03:06:24;100541.72;;;5.54;100.00
20424;BME280;10371;49.042;8.002;2023-02-01T03:08:43;100537.66;;;5.49;100.00
20424;BME280;10371;49.042;8.002;2023-02-01T03:09:47;100539.34;;;5.50;100.00
20424;BME280;10371;49.042;8.002;2023-02-01T03:10:57;100534.34;;;5.47;100.00
20424;BME280;10371;49.042;8.002;2023-02-01T03:12:01;100527.78;;;5.40;100.00
20424;BME280;10371;49.042;8.002;2023-02-01T03:13:28;100527.78;;;5.40;100.00
20424;BME280;10371;49.042;8.002;2023-02-01T03:14:33;100536.16;;;5.45;100.00
20424;BME280;10371;49.042;8.002;2023-02-01T03:15:40;100534.34;;;5.47;100.00
20424;BME280;10371;49.042;8.002;2023-02-01T03:16:50;100534.38;;;5.45;100.00
20424;BME280;10371;49.042;8.002;2023-02-01T03:17:53;100522.41;;;5.44;100.00
20424;BME280;10371;49.042;8.002;2023-02-01T03:18:59;100524.16;;;5.44;100.00
20424;BME280;10371;49.042;8.002;2023-02-01T03:20:02;100513.72;;;5.45;100.00
20424;BME280;10371;49.042;8.002;2023-02-01T03:21:08;100513.66;;;5.47;100.00
20424;BME280;10371;49.042;8.002;2023-02-01T03:22:15;100510.16;;;5.48;100.00
20424;BME280;10371;49.042;8.002;2023-02-01T03:23:19;100508.72;;;5.42;100.00
20424;BME280;10371;49.042;8.002;2023-02-01T03:24:25;100494.97;;;5.42;100.00
20424;BME280;10371;49.042;8.002;2023-02-01T03:25:33;100490.75;;;5.41;100.00
20424;BME280;10371;49.042;8.002;2023-02-01T03:26:36;100491.47;;;5.43;100.00
20424;BME280;10371;49.042;8.002;2023-02-01T03:28:03;100490.75;;;5.41;100.00
20424;BME280;10371;49.042;8.002;2023-02-01T03:29:11;100500.13;;;5.42;100.00
20424;BME280;10371;49.042;8.002;2023-02-01T03:31:17;100499.53;;;5.36;100.00
20424;BME280;10371;49.042;8.002;2023-02-01T03:32:18;100505.38;;;5.40;100.00
20424;BME280;10371;49.042;8.002;2023-02-01T03:33:21;100515.78;;;5.38;100.00
20424;BME280;10371;49.042;8.002;2023-02-01T03:34:23;100509.78;;;5.38;100.00
20424;BME280;10371;49.042;8.002;2023-02-01T03:35:49;100504.38;;;5.43;100.00
20424;BME280;10371;49.042;8.002;2023-02-01T03:36:58;100499.31;;;5.41;100.00
20424;BME280;10371;49.042;8.002;2023-02-01T03:38:13;100505.31;;;5.42;100.00
20424;BME280;10371;49.042;8.002;2023-02-01T03:40:10;100506.13;;;5.42;100.00
20424;BME280;10371;49.042;8.002;2023-02-01T03:42:12;100523.22;;;5.45;100.00
20424;BME280;10371;49.042;8.002;2023-02-01T03:43:16;100508.66;;;5.44;100.00
20424;BME280;10371;49.042;8.002;2023-02-01T03:45:50;100509.41;;;5.46;100.00
20424;BME280;10371;49.042;8.002;2023-02-01T03:47:06;100516.47;;;5.42;100.00
20424;BME280;10371;49.042;8.002;2023-02-01T03:48:10;100511.25;;;5.44;100.00
20424;BME280;10371;49.042;8.002;2023-02-01T03:49:18;100504.47;;;5.41;100.00
20424;BME280;10371;49.042;8.002;2023-02-01T03:50:21;100517.28;;;5.43;100.00
20424;BME280;10371;49.042;8.002;2023-02-01T03:51:25;100510.31;;;5.45;100.00
20424;BME280;10371;49.042;8.002;2023-02-01T03:52:33;100509.53;;;5.43;100.00
20424;BME280;10371;49.042;8.002;2023-02-01T03:53:37;100506.91;;;5.44;100.00
20424;BME280;10371;49.042;8.002;2023-02-01T03:54:40;100501.06;;;5.41;100.00
20424;BME280;10371;49.042;8.002;2023-02-01T03:55:41;100509.63;;;5.41;100.00
20424;BME280;10371;49.042;8.002;2023-02-01T03:56:44;100520.03;;;5.40;100.00
20424;BME280;10371;49.042;8.002;2023-02-01T03:57:51;100520.03;;;5.40;100.00
20424;BME280;10371;49.042;8.002;2023-02-01T03:58:53;100524.00;;;5.47;100.00
20424;BME280;10371;49.042;8.002;2023-02-01T04:00:09;100522.47;;;5.43;100.00
20424;BME280;10371;49.042;8.002;2023-02-01T04:01:10;100517.44;;;5.40;100.00
20424;BME280;10371;49.042;8.002;2023-02-01T04:02:11;100521.84;;;5.37;100.00
20424;BME280;10371;49.042;8.002;2023-02-01T04:03:11;100514.88;;;5.40;100.00
20424;BME280;10371;49.042;8.002;2023-02-01T04:04:11;100527.78;;;5.40;100.00
20424;BME280;10371;49.042;8.002;2023-02-01T04:05:20;100526.94;;;5.39;100.00
20424;BME280;10371;49.042;8.002;2023-02-01T04:06:21;100532.03;;;5.41;100.00
20424;BME280;10371;49.042;8.002;2023-02-01T04:07:22;100537.22;;;5.41;100.00
20424;BME280;10371;49.042;8.002;2023-02-01T04:08:24;100545.00;;;5.39;100.00
20424;BME280;10371;49.042;8.002;2023-02-01T04:09:24;100548.44;;;5.40;100.00
20424;BME280;10371;49.042;8.002;2023-02-01T04:10:25;100544.09;;;5.40;100.00
20424;BME280;10371;49.042;8.002;2023-02-01T04:11:25;100537.94;;;5.43;100.00
20424;BME280;10371;49.042;8.002;2023-02-01T04:12:27;100540.63;;;5.41;100.00
20424;BME280;10371;49.042;8.002;2023-02-01T04:13:27;100532.03;;;5.41;100.00
20424;BME280;10371;49.042;8.002;2023-02-01T04:14:27;100542.28;;;5.42;100.00
20424;BME280;10371;49.042;8.002;2023-02-01T04:15:28;100533.78;;;5.40;100.00
20424;BME280;10371;49.042;8.002;2023-02-01T04:16:28;100537.31;;;5.37;100.00
20424;BME280;10371;49.042;8.002;2023-02-01T04:17:29;100543.41;;;5.36;100.00
20424;BME280;10371;49.042;8.002;2023-02-01T04:18:29;100545.06;;;5.37;100.00
20424;BME280;10371;49.042;8.002;2023-02-01T04:19:29;100544.34;;;5.35;100.00
20424;BME280;10371;49.042;8.002;2023-02-01T04:20:30;100550.31;;;5.36;100.00
20424;BME280;10371;49.042;8.002;2023-02-01T04:21:30;100546.78;;;5.38;100.00
20424;BME280;10371;49.042;8.002;2023-02-01T04:22:31;100557.94;;;5.39;100.00
20424;BME280;10371;49.042;8.002;2023-02-01T04:23:31;100545.84;;;5.40;100.00
20424;BME280;10371;49.042;8.002;2023-02-01T04:24:31;100548.38;;;5.41;100.00
20424;BME280;10371;49.042;8.002;2023-02-01T04:25:32;100542.38;;;5.41;100.00
20424;BME280;10371;49.042;8.002;2023-02-01T04:26:32;100539.09;;;5.37;100.00
20424;BME280;10371;49.042;8.002;2023-02-01T04:27:32;100535.66;;;5.36;100.00
20424;BME280;10371;49.042;8.002;2023-02-01T04:28:33;100535.66;;;5.36;100.00
20424;BME280;10371;49.042;8.002;2023-02-01T04:29:33;100531.63;;;5.31;100.00
20424;BME280;10371;49.042;8.002;2023-02-01T04:30:33;100539.91;;;5.37;100.00
20424;BME280;10371;49.042;8.002;2023-02-01T04:31:34;100533.09;;;5.36;100.00
20424;BME280;10371;49.042;8.002;2023-02-01T04:32:36;100518.66;;;5.32;100.00
20424;BME280;10371;49.042;8.002;2023-02-01T04:33:36;100516.00;;;5.34;100.00
20424;BME280;10371;49.042;8.002;2023-02-01T04:34:37;100528.06;;;5.33;100.00
20424;BME280;10371;49.042;8.002;2023-02-01T04:35:37;100527.91;;;5.36;100.00
20424;BME280;10371;49.042;8.002;2023-02-01T04:36:37;100523.53;;;5.38;100.00
20424;BME280;10371;49.042;8.002;2023-02-01T04:37:38;100532.94;;;5.40;100.00
20424;BME280;10371;49.042;8.002;2023-02-01T04:38:38;100529.59;;;5.37;100.00
20424;BME280;10371;49.042;8.002;2023-02-01T04:39:38;100526.13;;;5.38;100.00
20424;BME280;10371;49.042;8.002;2023-02-01T04:40:38;100530.19;;;5.43;100.00
20424;BME280;10371;49.042;8.002;2023-02-01T04:41:39;100529.47;;;5.41;100.00
20424;BME280;10371;49.042;8.002;2023-02-01T04:42:39;100534.47;;;5.44;100.00
20424;BME280;10371;49.042;8.002;2023-02-01T04:43:39;100526.94;;;5.39;100.00
20424;BME280;10371;49.042;8.002;2023-02-01T04:44:40;100522.59;;;5.40;100.00
20424;BME280;10371;49.042;8.002;2023-02-01T04:45:41;100518.38;;;5.38;100.00
20424;BME280;10371;49.042;8.002;2023-02-01T04:46:46;100520.81;;;5.42;100.00
20424;BME280;10371;49.042;8.002;2023-02-01T04:47:47;100525.28;;;5.38;100.00
20424;BME280;10371;49.042;8.002;2023-02-01T04:48:48;100526.13;;;5.38;100.00
20424;BME280;10371;49.042;8.002;2023-02-01T04:49:49;100518.22;;;5.42;100.00
20424;BME280;10371;49.042;8.002;2023-02-01T04:50:49;100514.09;;;5.37;100.00
20424;BME280;10371;49.042;8.002;2023-02-01T04:51:49;100514.94;;;5.38;100.00
20424;BME280;10371;49.042;8.002;2023-02-01T04:52:49;100512.44;;;5.36;100.00
20424;BME280;10371;49.042;8.002;2023-02-01T04:53:50;100515.16;;;5.33;100.00
20424;BME280;10371;49.042;8.002;2023-02-01T04:54:50;100518.72;;;5.31;100.00
20424;BME280;10371;49.042;8.002;2023-02-01T04:55:50;100520.47;;;5.30;100.00
20424;BME280;10371;49.042;8.002;2023-02-01T04:56:51;100526.31;;;5.34;100.00
20424;BME280;10371;49.042;8.002;2023-02-01T04:57:51;100520.31;;;5.33;100.00
20424;BME280;10371;49.042;8.002;2023-02-01T04:58:51;100530.66;;;5.33;100.00
20424;BME280;10371;49.042;8.002;2023-02-01T04:59:51;100524.72;;;5.31;100.00
20424;BME280;10371;49.042;8.002;2023-02-01T05:00:52;100531.56;;;5.32;100.00
20424;BME280;10371;49.042;8.002;2023-02-01T05:01:52;100533.25;;;5.33;100.00
20424;BME280;10371;49.042;8.002;2023-02-01T05:02:52;100537.56;;;5.33;100.00
20424;BME280;10371;49.042;8.002;2023-02-01T05:03:52;100535.97;;;5.30;100.00
20424;BME280;10371;49.042;8.002;2023-02-01T05:04:53;100533.38;;;5.30;100.00
20424;BME280;10371;49.042;8.002;2023-02-01T05:05:54;100540.06;;;5.34;100.00
20424;BME280;10371;49.042;8.002;2023-02-01T05:06:54;100533.84;;;5.38;100.00
20424;BME280;10371;49.042;8.002;2023-02-01T05:07:54;100529.53;;;5.39;100.00
20424;BME280;10371;49.042;8.002;2023-02-01T05:08:55;100534.47;;;5.44;100.00
20424;BME280;10371;49.042;8.002;2023-02-01T05:09:55;100515.34;;;5.48;100.00
20424;BME280;10371;49.042;8.002;2023-02-01T05:10:55;100524.63;;;5.52;100.00
20424;BME280;10371;49.042;8.002;2023-02-01T05:11:56;100522.16;;;5.49;100.00
20424;BME280;10371;49.042;8.002;2023-02-01T05:13:14;100520.34;;;5.51;100.00
20424;BME280;10371;49.042;8.002;2023-02-01T05:14:33;100526.66;;;5.45;100.00
20424;BME280;10371;49.042;8.002;2023-02-01T05:15:34;100508.34;;;5.50;100.00
20424;BME280;10371;49.042;8.002;2023-02-01T05:16:34;100501.38;;;5.52;100.00
20424;BME280;10371;49.042;8.002;2023-02-01T05:17:35;100507.44;;;5.51;100.00
20424;BME280;10371;49.042;8.002;2023-02-01T05:18:35;100516.88;;;5.52;100.00
20424;BME280;10371;49.042;8.002;2023-02-01T05:19:35;100524.63;;;5.52;100.00
20424;BME280;10371;49.042;8.002;2023-02-01T05:20:36;100534.19;;;5.50;100.00
20424;BME280;10371;49.042;8.002;2023-02-01T05:21:36;100520.34;;;5.51;100.00
20424;BME280;10371;49.042;8.002;2023-02-01T05:22:36;100527.72;;;5.58;100.00
20424;BME280;10371;49.042;8.002;2023-02-01T05:23:36;100514.81;;;5.58;100.00
20424;BME280;10371;49.042;8.002;2023-02-01T05:24:57;100518.53;;;5.53;100.00
20424;BME280;10371;49.042;8.002;2023-02-01T05:26:01;100523.69;;;5.53;100.00
20424;BME280;10371;49.042;8.002;2023-02-01T05:27:01;100529.00;;;5.50;100.00
20424;BME280;10371;49.042;8.002;2023-02-01T05:28:02;100534.03;;;5.53;100.00
20424;BME280;10371;49.042;8.002;2023-02-01T05:29:03;100523.69;;;5.53;100.00
20424;BME280;10371;49.042;8.002;2023-02-01T05:30:05;100529.84;;;5.50;100.00
20424;BME280;10371;49.042;8.002;2023-02-01T05:31:09;100526.28;;;5.53;100.00
20424;BME280;10371;49.042;8.002;2023-02-01T05:32:10;100521.94;;;5.53;100.00
20424;BME280;10371;49.042;8.002;2023-02-01T05:33:11;100515.81;;;5.56;100.00
20424;BME280;10371;49.042;8.002;2023-02-01T05:34:11;100519.91;;;5.60;100.00
20424;BME280;10371;49.042;8.002;2023-02-01T05:35:12;100518.16;;;5.60;100.00
20424;BME280;10371;49.042;8.002;2023-02-01T05:36:12;100519.81;;;5.62;100.00
20424;BME280;10371;49.042;8.002;2023-02-01T05:37:12;100523.25;;;5.62;100.00
20424;BME280;10371;49.042;8.002;2023-02-01T05:38:13;100509.59;;;5.60;100.00
20424;BME280;10371;49.042;8.002;2023-02-01T05:39:13;100517.19;;;5.63;100.00
20424;BME280;10371;49.042;8.002;2023-02-01T05:40:14;100518.06;;;5.62;100.00
20424;BME280;10371;49.042;8.002;2023-02-01T05:41:14;100518.06;;;5.62;100.00
20424;BME280;10371;49.042;8.002;2023-02-01T05:42:14;100519.00;;;5.61;100.00
20424;BME280;10371;49.042;8.002;2023-02-01T05:43:15;100516.47;;;5.59;100.00
20424;BME280;10371;49.042;8.002;2023-02-01T05:44:15;100514.66;;;5.62;100.00
20424;BME280;10371;49.042;8.002;2023-02-01T05:45:16;100512.91;;;5.62;100.00
20424;BME280;10371;49.042;8.002;2023-02-01T05:46:16;100510.25;;;5.64;100.00
20424;BME280;10371;49.042;8.002;2023-02-01T05:47:16;100505.09;;;5.64;100.00
20424;BME280;10371;49.042;8.002;2023-02-01T05:48:17;100500.09;;;5.60;100.00
20424;BME280;10371;49.042;8.002;2023-02-01T05:49:17;100498.50;;;5.58;100.00
20424;BME280;10371;49.042;8.002;2023-02-01T05:50:17;100494.00;;;5.62;100.00
20424;BME280;10371;49.042;8.002;2023-02-01T05:51:18;100497.41;;;5.62;100.00
20424;BME280;10371;49.042;8.002;2023-02-01T05:52:18;100499.09;;;5.63;100.00
20424;BME280;10371;49.042;8.002;2023-02-01T05:53:19;100505.94;;;5.64;100.00
20424;BME280;10371;49.042;8.002;2023-02-01T05:54:19;100501.53;;;5.66;100.00
20424;BME280;10371;49.042;8.002;2023-02-01T05:55:19;100503.81;;;5.72;100.00
20424;BME280;10371;49.042;8.002;2023-02-01T05:56:20;100510.63;;;5.73;100.00